sensor_id;sensor_type;location;lat;lon;timestamp;pressure;altitude;pressure_sealevel;temperature;humidity
18697;BME280;22617;43.690;27.956;2022-11-15T00:01:54;99701.41;;;6.98;90.31
18697;BME280;22617;43.690;27.956;2022-11-15T00:07:18;99702.47;;;7.08;90.62
18697;BME280;22617;43.690;27.956;2022-11-15T00:13:04;99696.25;;;6.99;90.13
18697;BME280;22617;43.690;27.956;2022-11-15T00:18:27;99693.56;;;6.95;90.17
18697;BME280;22617;43.690;27.956;2022-11-15T00:23:50;99690.19;;;6.99;89.94
18697;BME280;22617;43.690;27.956;2022-11-15T00:29:12;99684.81;;;6.90;89.90
18697;BME280;22617;43.690;27.956;2022-11-15T00:34:34;99680.63;;;6.96;90.20
18697;BME280;22617;43.690;27.956;2022-11-15T00:39:58;99678.81;;;6.92;90.24
18697;BME280;22617;43.690;27.956;2022-11-15T00:45:19;99666.59;;;6.87;90.42
18697;BME280;22617;43.690;27.956;2022-11-15T00:50:41;99666.59;;;6.85;90.34
18697;BME280;22617;43.690;27.956;2022-11-15T00:56:05;99657.25;;;6.93;90.65
18697;BME280;22617;43.690;27.956;2022-11-15T01:01:27;99659.66;;;6.84;90.38
18697;BME280;22617;43.690;27.956;2022-11-15T01:06:49;99658.94;;;6.91;90.45
18697;BME280;22617;43.690;27.956;2022-11-15T01:12:13;99645.00;;;6.86;90.27
18697;BME280;22617;43.690;27.956;2022-11-15T01:17:35;99653.69;;;6.88;90.30
18697;BME280;22617;43.690;27.956;2022-11-15T01:22:57;99658.13;;;6.95;90.58
18697;BME280;22617;43.690;27.956;2022-11-15T01:28:20;99646.06;;;6.94;90.28
18697;BME280;22617;43.690;27.956;2022-11-15T01:33:42;99642.50;;;6.89;90.13
18697;BME280;22617;43.690;27.956;2022-11-15T01:39:04;99643.28;;;6.87;90.12
18697;BME280;22617;43.690;27.956;2022-11-15T01:44:39;99656.13;;;6.82;90.25
18697;BME280;22617;43.690;27.956;2022-11-15T01:50:06;99664.00;;;6.87;90.50
18697;BME280;22617;43.690;27.956;2022-11-15T01:55:30;99650.34;;;6.94;90.43
18697;BME280;22617;43.690;27.956;2022-11-15T02:00:53;99638.09;;;6.87;90.21
18697;BME280;22617;43.690;27.956;2022-11-15T02:06:15;99640.59;;;6.82;90.29
18697;BME280;22617;43.690;27.956;2022-11-15T02:11:37;99632.81;;;6.81;90.18
18697;BME280;22617;43.690;27.956;2022-11-15T02:17:11;99632.88;;;6.84;90.34
18697;BME280;22617;43.690;27.956;2022-11-15T02:22:42;99623.25;;;6.78;90.45
18697;BME280;22617;43.690;27.956;2022-11-15T02:28:40;99631.28;;;6.90;90.29
18697;BME280;22617;43.690;27.956;2022-11-15T02:34:13;99612.19;;;6.85;90.32
18697;BME280;22617;43.690;27.956;2022-11-15T02:39:41;99614.09;;;6.94;89.93
18697;BME280;22617;43.690;27.956;2022-11-15T02:45:07;99611.25;;;6.83;89.89
18697;BME280;22617;43.690;27.956;2022-11-15T02:50:33;99603.44;;;6.82;90.32
18697;BME280;22617;43.690;27.956;2022-11-15T02:55:56;99604.41;;;6.85;90.33
18697;BME280;22617;43.690;27.956;2022-11-15T03:01:31;99605.56;;;6.99;90.38
18697;BME280;22617;43.690;27.956;2022-11-15T03:07:02;99595.94;;;6.95;90.13
18697;BME280;22617;43.690;27.956;2022-11-15T03:12:30;99596.66;;;6.87;89.60
18697;BME280;22617;43.690;27.956;2022-11-15T03:17:59;99602.72;;;6.87;89.89
18697;BME280;22617;43.690;27.956;2022-11-15T03:23:25;99597.56;;;6.89;89.89
18697;BME280;22617;43.690;27.956;2022-11-15T03:28:50;99593.16;;;6.85;89.80
18697;BME280;22617;43.690;27.956;2022-11-15T03:34:19;99594.22;;;6.96;90.17
18697;BME280;22617;43.690;27.956;2022-11-15T03:39:44;99587.91;;;6.82;90.07
18697;BME280;22617;43.690;27.956;2022-11-15T03:45:13;99576.66;;;6.81;90.49
18697;BME280;22617;43.690;27.956;2022-11-15T03:50:36;99574.91;;;6.79;90.46
18697;BME280;22617;43.690;27.956;2022-11-15T03:56:00;99569.69;;;6.77;90.33
18697;BME280;22617;43.690;27.956;2022-11-15T04:01:22;99571.44;;;6.78;90.49
18697;BME280;22617;43.690;27.956;2022-11-15T04:06:44;99560.25;;;6.79;90.53
18697;BME280;22617;43.690;27.956;2022-11-15T04:12:08;99568.00;;;6.79;90.42
18697;BME280;22617;43.690;27.956;2022-11-15T04:17:30;99560.38;;;6.85;90.44
18697;BME280;22617;43.690;27.956;2022-11-15T04:22:53;99561.94;;;6.79;90.44
18697;BME280;22617;43.690;27.956;2022-11-15T04:28:33;99562.16;;;6.89;90.61
18697;BME280;22617;43.690;27.956;2022-11-15T04:33:56;99569.94;;;6.89;90.32
18697;BME280;22617;43.690;27.956;2022-11-15T04:39:18;99561.34;;;6.92;90.12
18697;BME280;22617;43.690;27.956;2022-11-15T04:44:41;99568.97;;;6.86;90.33
18697;BME280;22617;43.690;27.956;2022-11-15T04:50:04;99559.56;;;6.89;90.31
18697;BME280;22617;43.690;27.956;2022-11-15T04:55:26;99563.06;;;6.91;90.20
18697;BME280;22617;43.690;27.956;2022-11-15T05:00:49;99547.41;;;6.85;90.48
18697;BME280;22617;43.690;27.956;2022-11-15T05:06:11;99550.75;;;6.81;90.41
18697;BME280;22617;43.690;27.956;2022-11-15T05:11:34;99549.84;;;6.78;90.87
18697;BME280;22617;43.690;27.956;2022-11-15T05:16:57;99545.84;;;6.93;91.31
18697;BME280;22617;43.690;27.956;2022-11-15T05:22:19;99543.84;;;6.80;91.14
18697;BME280;22617;43.690;27.956;2022-11-15T05:27:41;99548.38;;;6.92;91.56
18697;BME280;22617;43.690;27.956;2022-11-15T05:33:04;99552.66;;;6.88;91.21
18697;BME280;22617;43.690;27.956;2022-11-15T05:38:27;99561.34;;;6.92;91.40
18697;BME280;22617;43.690;27.956;2022-11-15T05:43:50;99546.75;;;6.97;91.22
18697;BME280;22617;43.690;27.956;2022-11-15T05:49:17;99556.16;;;6.90;91.26
18697;BME280;22617;43.690;27.956;2022-11-15T05:54:39;99557.88;;;6.91;91.47
18697;BME280;22617;43.690;27.956;2022-11-15T06:00:05;99554.22;;;6.80;91.67
18697;BME280;22617;43.690;27.956;2022-11-15T06:05:29;99558.75;;;6.90;92.18
18697;BME280;22617;43.690;27.956;2022-11-15T06:10:51;99558.00;;;6.97;91.88
18697;BME280;22617;43.690;27.956;2022-11-15T06:16:13;99562.25;;;6.95;91.80
18697;BME280;22617;43.690;27.956;2022-11-15T06:21:36;99547.84;;;7.08;91.76
18697;BME280;22617;43.690;27.956;2022-11-15T06:26:58;99544.56;;;7.20;91.48
18697;BME280;22617;43.690;27.956;2022-11-15T06:32:20;99544.69;;;7.26;91.49
18697;BME280;22617;43.690;27.956;2022-11-15T06:37:43;99548.13;;;7.25;90.63
18697;BME280;22617;43.690;27.956;2022-11-15T06:43:06;99547.16;;;7.18;90.57
18697;BME280;22617;43.690;27.956;2022-11-15T06:48:28;99546.44;;;7.27;90.66
18697;BME280;22617;43.690;27.956;2022-11-15T06:53:52;99549.13;;;7.31;90.26
18697;BME280;22617;43.690;27.956;2022-11-15T06:59:14;99552.03;;;7.48;90.47
18697;BME280;22617;43.690;27.956;2022-11-15T07:04:36;99553.75;;;7.49;89.63
18697;BME280;22617;43.690;27.956;2022-11-15T07:10:00;99554.63;;;7.50;89.48
18697;BME280;22617;43.690;27.956;2022-11-15T07:15:23;99555.72;;;7.62;89.35
18697;BME280;22617;43.690;27.956;2022-11-15T07:20:46;99554.94;;;7.68;88.29
18697;BME280;22617;43.690;27.956;2022-11-15T07:26:10;99538.66;;;7.78;88.45
18697;BME280;22617;43.690;27.956;2022-11-15T07:31:32;99543.06;;;7.83;87.80
18697;BME280;22617;43.690;27.956;2022-11-15T07:36:54;99542.97;;;7.76;87.07
18697;BME280;22617;43.690;27.956;2022-11-15T07:42:17;99543.22;;;7.91;87.35
18697;BME280;22617;43.690;27.956;2022-11-15T07:47:57;99529.41;;;7.94;87.53
18697;BME280;22617;43.690;27.956;2022-11-15T07:53:19;99528.78;;;8.10;87.72
18697;BME280;22617;43.690;27.956;2022-11-15T07:58:42;99533.97;;;8.11;87.02
18697;BME280;22617;43.690;27.956;2022-11-15T08:04:06;99537.63;;;8.25;87.15
18697;BME280;22617;43.690;27.956;2022-11-15T08:09:28;99527.06;;;8.12;86.36
18697;BME280;22617;43.690;27.956;2022-11-15T08:14:52;99528.94;;;8.22;86.65
18697;BME280;22617;43.690;27.956;2022-11-15T08:20:14;99529.16;;;8.36;86.02
18697;BME280;22617;43.690;27.956;2022-11-15T08:25:36;99538.97;;;8.59;86.51
18697;BME280;22617;43.690;27.956;2022-11-15T08:31:00;99534.47;;;8.45;85.06
18697;BME280;22617;43.690;27.956;2022-11-15T08:36:22;99526.91;;;8.64;86.02
18697;BME280;22617;43.690;27.956;2022-11-15T08:41:44;99531.31;;;8.67;84.80
18697;BME280;22617;43.690;27.956;2022-11-15T08:47:07;99525.38;;;8.77;84.67
18697;BME280;22617;43.690;27.956;2022-11-15T08:52:33;99520.22;;;8.83;84.51
18697;BME280;22617;43.690;27.956;2022-11-15T08:57:56;99505.44;;;8.78;84.38
18697;BME280;22617;43.690;27.956;2022-11-15T09:03:20;99502.13;;;8.94;84.86
18697;BME280;22617;43.690;27.956;2022-11-15T09:08:42;99503.28;;;9.20;85.03
18697;BME280;22617;43.690;27.956;2022-11-15T09:14:10;99494.66;;;9.24;83.33
18697;BME280;22617;43.690;27.956;2022-11-15T09:19:34;99481.69;;;9.30;83.70
18697;BME280;22617;43.690;27.956;2022-11-15T09:24:56;99471.19;;;9.21;83.43
18697;BME280;22617;43.690;27.956;2022-11-15T09:30:18;99463.34;;;9.16;82.65
18697;BME280;22617;43.690;27.956;2022-11-15T09:35:41;99462.59;;;9.28;83.21
18697;BME280;22617;43.690;27.956;2022-11-15T09:41:22;99461.84;;;9.43;82.93
18697;BME280;22617;43.690;27.956;2022-11-15T09:46:55;99458.31;;;9.33;83.55
18697;BME280;22617;43.690;27.956;2022-11-15T09:52:42;99440.25;;;9.54;83.32
18697;BME280;22617;43.690;27.956;2022-11-15T09:57:50;99437.63;;;9.54;82.42
18697;BME280;22617;43.690;27.956;2022-11-15T10:03:12;99426.47;;;9.71;81.57
18697;BME280;22617;43.690;27.956;2022-11-15T10:08:53;99424.00;;;9.87;80.43
18697;BME280;22617;43.690;27.956;2022-11-15T10:14:00;99427.44;;;9.85;81.44
18697;BME280;22617;43.690;27.956;2022-11-15T10:19:13;99412.69;;;9.82;80.94
18697;BME280;22617;43.690;27.956;2022-11-15T10:24:26;99406.72;;;10.12;81.15
18697;BME280;22617;43.690;27.956;2022-11-15T10:29:31;99385.81;;;9.86;80.54
18697;BME280;22617;43.690;27.956;2022-11-15T10:34:36;99378.88;;;9.93;80.81
18697;BME280;22617;43.690;27.956;2022-11-15T10:39:41;99377.22;;;10.10;80.65
18697;BME280;22617;43.690;27.956;2022-11-15T10:44:45;99371.22;;;10.19;80.80
18697;BME280;22617;43.690;27.956;2022-11-15T10:50:00;99369.41;;;10.13;80.09
18697;BME280;22617;43.690;27.956;2022-11-15T10:55:22;99364.13;;;9.92;81.15
18697;BME280;22617;43.690;27.956;2022-11-15T11:00:30;99362.47;;;10.06;81.67
18697;BME280;22617;43.690;27.956;2022-11-15T11:05:36;99358.97;;;10.01;80.28
18697;BME280;22617;43.690;27.956;2022-11-15T11:10:52;99355.44;;;9.90;80.70
18697;BME280;22617;43.690;27.956;2022-11-15T11:16:23;99338.13;;;10.01;81.10
18697;BME280;22617;43.690;27.956;2022-11-15T11:21:39;99340.75;;;10.13;81.18
18697;BME280;22617;43.690;27.956;2022-11-15T11:26:56;99329.53;;;10.16;80.49
18697;BME280;22617;43.690;27.956;2022-11-15T11:32:13;99328.59;;;10.12;80.18
18697;BME280;22617;43.690;27.956;2022-11-15T11:37:24;99314.72;;;10.10;79.92
18697;BME280;22617;43.690;27.956;2022-11-15T11:42:38;99299.09;;;10.10;79.89
18697;BME280;22617;43.690;27.956;2022-11-15T11:47:48;99288.75;;;10.25;80.84
18697;BME280;22617;43.690;27.956;2022-11-15T11:52:57;99295.69;;;10.26;80.62
18697;BME280;22617;43.690;27.956;2022-11-15T11:58:12;99287.88;;;10.25;80.27
18697;BME280;22617;43.690;27.956;2022-11-15T12:03:24;99280.91;;;10.31;80.35
18697;BME280;22617;43.690;27.956;2022-11-15T12:08:39;99266.19;;;10.21;80.32
18697;BME280;22617;43.690;27.956;2022-11-15T12:13:50;99267.91;;;10.25;80.59
18697;BME280;22617;43.690;27.956;2022-11-15T12:19:00;99255.75;;;10.30;80.38
18697;BME280;22617;43.690;27.956;2022-11-15T12:24:07;99250.53;;;10.38;80.14
18697;BME280;22617;43.690;27.956;2022-11-15T12:29:19;99235.78;;;10.55;80.02
18697;BME280;22617;43.690;27.956;2022-11-15T12:34:38;99237.53;;;10.55;80.32
18697;BME280;22617;43.690;27.956;2022-11-15T12:40:23;99236.66;;;10.40;80.20
18697;BME280;22617;43.690;27.956;2022-11-15T12:45:29;99235.78;;;10.43;79.49
18697;BME280;22617;43.690;27.956;2022-11-15T12:50:53;99228.81;;;10.31;80.56
18697;BME280;22617;43.690;27.956;2022-11-15T13:01:59;99213.22;;;10.40;79.70
18697;BME280;22617;43.690;27.956;2022-11-15T13:07:04;99219.28;;;10.26;80.30
18697;BME280;22617;43.690;27.956;2022-11-15T13:12:10;99208.84;;;10.23;80.08
18697;BME280;22617;43.690;27.956;2022-11-15T13:17:31;99205.38;;;10.21;80.66
18697;BME280;22617;43.690;27.956;2022-11-15T13:22:40;99214.00;;;10.09;82.00
18697;BME280;22617;43.690;27.956;2022-11-15T13:28:02;99190.56;;;10.00;82.15
18697;BME280;22617;43.690;27.956;2022-11-15T13:33:14;99193.19;;;10.14;81.83
18697;BME280;22617;43.690;27.956;2022-11-15T13:38:26;99189.72;;;10.10;81.08
18697;BME280;22617;43.690;27.956;2022-11-15T13:43:35;99185.34;;;10.03;82.27
18697;BME280;22617;43.690;27.956;2022-11-15T13:48:41;99181.88;;;9.92;82.50
18697;BME280;22617;43.690;27.956;2022-11-15T13:53:48;99174.06;;;9.81;82.52
18697;BME280;22617;43.690;27.956;2022-11-15T14:37:10;99128.94;;;9.91;82.28
18697;BME280;22617;43.690;27.956;2022-11-15T14:42:20;99106.38;;;9.92;82.65
18697;BME280;22617;43.690;27.956;2022-11-15T14:47:24;99103.78;;;9.87;82.78
18697;BME280;22617;43.690;27.956;2022-11-15T14:52:29;99103.75;;;9.89;82.73
18697;BME280;22617;43.690;27.956;2022-11-15T14:57:36;99102.91;;;9.87;82.80
18697;BME280;22617;43.690;27.956;2022-11-15T15:02:40;99098.59;;;9.78;82.72
18697;BME280;22617;43.690;27.956;2022-11-15T15:07:45;99102.91;;;9.84;82.97
18697;BME280;22617;43.690;27.956;2022-11-15T15:12:49;99088.16;;;9.80;83.23
18697;BME280;22617;43.690;27.956;2022-11-15T15:17:53;99084.69;;;9.78;83.10
18697;BME280;22617;43.690;27.956;2022-11-15T15:22:58;99083.81;;;9.77;83.29
18697;BME280;22617;43.690;27.956;2022-11-15T15:28:02;99076.00;;;9.77;83.64
18697;BME280;22617;43.690;27.956;2022-11-15T15:33:05;99084.69;;;9.78;83.74
18697;BME280;22617;43.690;27.956;2022-11-15T15:38:11;99076.88;;;9.76;83.59
18697;BME280;22617;43.690;27.956;2022-11-15T15:43:15;99076.00;;;9.73;83.88
18697;BME280;22617;43.690;27.956;2022-11-15T15:48:18;99083.81;;;9.71;84.17
18697;BME280;22617;43.690;27.956;2022-11-15T15:53:23;99071.69;;;9.69;84.36
18697;BME280;22617;43.690;27.956;2022-11-15T15:58:26;99076.88;;;9.69;83.80
18697;BME280;22617;43.690;27.956;2022-11-15T16:03:30;99059.50;;;9.64;84.08
18697;BME280;22617;43.690;27.956;2022-11-15T16:08:35;99051.69;;;9.74;84.59
18697;BME280;22617;43.690;27.956;2022-11-15T16:13:59;99055.19;;;9.67;84.61
18697;BME280;22617;43.690;27.956;2022-11-15T16:19:03;99055.19;;;9.62;84.70
18697;BME280;22617;43.690;27.956;2022-11-15T16:24:07;99047.38;;;9.63;85.70
18697;BME280;22617;43.690;27.956;2022-11-15T16:29:11;99038.69;;;9.55;85.18
18697;BME280;22617;43.690;27.956;2022-11-15T16:34:14;99041.28;;;9.55;85.14
18697;BME280;22617;43.690;27.956;2022-11-15T16:39:19;99043.03;;;9.58;85.71
18697;BME280;22617;43.690;27.956;2022-11-15T16:44:24;99034.38;;;9.57;85.47
18697;BME280;22617;43.690;27.956;2022-11-15T16:49:27;99033.50;;;9.57;85.18
18697;BME280;22617;43.690;27.956;2022-11-15T16:54:32;99030.91;;;9.58;84.54
18697;BME280;22617;43.690;27.956;2022-11-15T16:59:36;99023.06;;;9.60;85.11
18697;BME280;22617;43.690;27.956;2022-11-15T17:04:39;99020.47;;;9.55;84.44
18697;BME280;22617;43.690;27.956;2022-11-15T17:09:44;99030.03;;;9.58;85.13
18697;BME280;22617;43.690;27.956;2022-11-15T17:14:47;99030.88;;;9.55;85.04
18697;BME280;22617;43.690;27.956;2022-11-15T17:19:51;99026.56;;;9.62;85.46
18697;BME280;22617;43.690;27.956;2022-11-15T17:24:56;99014.44;;;9.58;84.88
18697;BME280;22617;43.690;27.956;2022-11-15T17:29:59;99008.34;;;9.56;85.20
18697;BME280;22617;43.690;27.956;2022-11-15T17:35:05;99000.53;;;9.57;85.11
18697;BME280;22617;43.690;27.956;2022-11-15T17:40:17;98990.97;;;9.59;85.27
18697;BME280;22617;43.690;27.956;2022-11-15T17:45:21;98992.75;;;9.63;84.93
18697;BME280;22617;43.690;27.956;2022-11-15T17:50:24;98991.88;;;9.58;84.72
18697;BME280;22617;43.690;27.956;2022-11-15T17:55:29;98984.03;;;9.64;85.31
18697;BME280;22617;43.690;27.956;2022-11-15T18:00:32;98983.19;;;9.59;84.79
18697;BME280;22617;43.690;27.956;2022-11-15T18:05:38;98987.53;;;9.56;85.14
18697;BME280;22617;43.690;27.956;2022-11-15T18:10:46;98980.56;;;9.55;84.75
18697;BME280;22617;43.690;27.956;2022-11-15T18:15:52;98984.06;;;9.54;84.91
18697;BME280;22617;43.690;27.956;2022-11-15T18:21:01;98977.13;;;9.51;85.10
18697;BME280;22617;43.690;27.956;2022-11-15T18:26:08;98975.38;;;9.41;85.14
18697;BME280;22617;43.690;27.956;2022-11-15T18:31:13;98971.06;;;9.34;85.52
18697;BME280;22617;43.690;27.956;2022-11-15T18:36:18;98971.06;;;9.30;85.60
18697;BME280;22617;43.690;27.956;2022-11-15T18:41:24;98962.38;;;9.26;85.21
18697;BME280;22617;43.690;27.956;2022-11-15T18:46:30;98959.78;;;9.25;86.11
18697;BME280;22617;43.690;27.956;2022-11-15T18:51:35;98954.56;;;9.18;85.81
18697;BME280;22617;43.690;27.956;2022-11-15T18:56:45;98950.25;;;9.05;85.92
18697;BME280;22617;43.690;27.956;2022-11-15T19:01:49;98939.81;;;8.93;86.03
18697;BME280;22617;43.690;27.956;2022-11-15T19:06:53;98944.09;;;8.74;86.43
18697;BME280;22617;43.690;27.956;2022-11-15T19:11:58;98946.69;;;8.62;86.37
18697;BME280;22617;43.690;27.956;2022-11-15T19:17:01;98935.38;;;8.45;86.32
18697;BME280;22617;43.690;27.956;2022-11-15T19:22:04;98937.06;;;8.32;86.63
18697;BME280;22617;43.690;27.956;2022-11-15T19:27:09;98933.47;;;8.12;86.74
18697;BME280;22617;43.690;27.956;2022-11-15T19:32:13;98921.28;;;7.98;86.41
18697;BME280;22617;43.690;27.956;2022-11-15T19:37:16;98917.81;;;7.91;86.16
18697;BME280;22617;43.690;27.956;2022-11-15T19:42:21;98915.19;;;7.88;86.61
18697;BME280;22617;43.690;27.956;2022-11-15T19:47:24;98901.25;;;7.66;85.20
18697;BME280;22617;43.690;27.956;2022-11-15T19:52:29;98905.56;;;7.67;85.52
18697;BME280;22617;43.690;27.956;2022-11-15T19:57:34;98896.03;;;7.68;85.23
18697;BME280;22617;43.690;27.956;2022-11-15T20:02:37;98895.22;;;7.73;86.00
18697;BME280;22617;43.690;27.956;2022-11-15T20:07:41;98896.91;;;7.68;85.82
18697;BME280;22617;43.690;27.956;2022-11-15T20:12:45;98890.81;;;7.59;85.49
18697;BME280;22617;43.690;27.956;2022-11-15T20:17:49;98887.34;;;7.57;85.55
18697;BME280;22617;43.690;27.956;2022-11-15T20:22:53;98892.47;;;7.48;85.81
18697;BME280;22617;43.690;27.956;2022-11-15T20:28:03;98895.00;;;7.37;86.36
18697;BME280;22617;43.690;27.956;2022-11-15T20:33:06;98888.91;;;7.35;86.85
18697;BME280;22617;43.690;27.956;2022-11-15T20:38:10;98881.97;;;7.26;86.80
18697;BME280;22617;43.690;27.956;2022-11-15T20:43:17;98878.28;;;6.97;85.86
18697;BME280;22617;43.690;27.956;2022-11-15T20:48:21;98873.75;;;6.76;86.44
18697;BME280;22617;43.690;27.956;2022-11-15T20:53:24;98867.69;;;6.73;86.41
18697;BME280;22617;43.690;27.956;2022-11-15T20:58:34;98859.16;;;6.83;87.14
18697;BME280;22617;43.690;27.956;2022-11-15T21:03:38;98860.59;;;6.50;85.76
18697;BME280;22617;43.690;27.956;2022-11-15T21:08:41;98847.59;;;6.46;86.10
18697;BME280;22617;43.690;27.956;2022-11-15T21:14:03;98838.91;;;6.39;86.34
18697;BME280;22617;43.690;27.956;2022-11-15T21:19:10;98838.84;;;6.35;86.56
18697;BME280;22617;43.690;27.956;2022-11-15T21:24:14;98831.00;;;6.23;86.35
18697;BME280;22617;43.690;27.956;2022-11-15T21:29:19;98822.28;;;6.16;86.30
18697;BME280;22617;43.690;27.956;2022-11-15T21:34:22;98810.16;;;6.09;86.22
18697;BME280;22617;43.690;27.956;2022-11-15T21:39:26;98803.28;;;6.14;86.10
18697;BME280;22617;43.690;27.956;2022-11-15T21:44:30;98798.13;;;6.16;85.86
18697;BME280;22617;43.690;27.956;2022-11-15T21:49:34;98783.41;;;6.10;85.41
18697;BME280;22617;43.690;27.956;2022-11-15T21:54:37;98772.09;;;5.99;84.18
18697;BME280;22617;43.690;27.956;2022-11-15T21:59:43;98769.41;;;5.90;83.67
18697;BME280;22617;43.690;27.956;2022-11-15T22:05:00;98755.59;;;5.88;83.90
18697;BME280;22617;43.690;27.956;2022-11-15T22:10:05;98748.78;;;5.97;84.10
18697;BME280;22617;43.690;27.956;2022-11-15T22:15:10;98749.81;;;6.14;84.82
18697;BME280;22617;43.690;27.956;2022-11-15T22:20:13;98742.00;;;6.08;84.96
18697;BME280;22617;43.690;27.956;2022-11-15T22:25:37;98735.16;;;6.13;85.11
18697;BME280;22617;43.690;27.956;2022-11-15T22:30:43;98724.69;;;6.04;84.96
18697;BME280;22617;43.690;27.956;2022-11-15T22:35:47;98721.34;;;6.11;84.76
18697;BME280;22617;43.690;27.956;2022-11-15T22:40:50;98713.50;;;6.05;85.05
18697;BME280;22617;43.690;27.956;2022-11-15T22:45:58;98700.53;;;5.98;85.15
18697;BME280;22617;43.690;27.956;2022-11-15T22:51:03;98710.91;;;5.99;85.45
18697;BME280;22617;43.690;27.956;2022-11-15T22:56:08;98694.38;;;5.87;85.18
18697;BME280;22617;43.690;27.956;2022-11-15T23:01:18;98684.03;;;5.87;84.70
18697;BME280;22617;43.690;27.956;2022-11-15T23:06:23;98685.06;;;6.05;85.24
18697;BME280;22617;43.690;27.956;2022-11-15T23:11:26;98672.19;;;6.14;85.55
18697;BME280;22617;43.690;27.956;2022-11-15T23:16:48;98665.88;;;5.85;84.85
18697;BME280;22617;43.690;27.956;2022-11-15T23:21:51;98650.50;;;5.94;85.37
18697;BME280;22617;43.690;27.956;2022-11-15T23:27:12;98641.00;;;5.95;85.73
18697;BME280;22617;43.690;27.956;2022-11-15T23:32:22;98642.56;;;5.81;85.33
18697;BME280;22617;43.690;27.956;2022-11-15T23:37:43;98629.50;;;5.64;84.89
18697;BME280;22617;43.690;27.956;2022-11-15T23:42:46;98629.69;;;5.84;85.63
18697;BME280;22617;43.690;27.956;2022-11-15T23:47:52;98630.53;;;5.83;85.76
18697;BME280;22617;43.690;27.956;2022-11-15T23:53:02;98615.88;;;5.80;86.16
18697;BME280;22617;43.690;27.956;2022-11-15T23:58:06;98607.94;;;5.63;85.41
